Date,TemperatureHighF,TemperatureAvgF,TemperatureLowF,DewpointHighF,DewpointAvgF,DewpointLowF,HumidityHigh,HumidityAvg,HumidityLow,PressureMaxIn,PressureMinIn,WindSpeedMaxMPH,WindSpeedAvgMPH,GustSpeedMaxMPH,PrecipitationSumIn
2013-11-1,49.9,42.8,36.7,39.2,37.4,31.0,93,82,64,29.83,29.40,8,2,10,0.00
2013-11-2,50.2,39.4,32.8,35.6,31.4,27.5,85,74,51,30.07,29.83,8,1,10,0.00
2013-11-3,54.5,44.0,32.8,37.0,33.0,27.9,84,66,46,30.09,29.88,21,6,27,0.00
2013-11-4,48.1,44.2,33.7,44.0,37.1,29.8,91,77,61,30.12,29.82,15,3,20,0.19
2013-11-5,44.3,35.6,29.5,35.9,30.5,26.3,93,82,60,30.22,29.99,5,0,6,0.03
2013-11-6,38.2,33.6,30.8,31.3,28.4,25.6,93,81,64,30.13,29.99,8,1,10,0.06
2013-11-7,36.4,30.3,25.2,31.1,26.2,21.5,90,85,80,30.20,30.12,5,0,6,0.02
2013-11-8,44.1,34.8,24.1,38.6,28.5,21.1,91,79,63,30.16,29.57,26,4,35,0.02
2013-11-9,44.1,40.7,36.7,38.7,33.0,27.3,84,74,63,30.16,29.60,10,4,19,0.00
2013-11-10,42.8,38.0,31.9,31.6,29.4,25.4,78,71,61,30.29,30.06,9,2,12,0.00
2013-11-11,38.3,24.7,16.2,31.6,14.7,8.7,80,66,51,30.66,30.08,7,2,10,0.00
2013-11-12,31.7,20.4,12.6,14.0,10.1,6.9,79,65,44,30.71,30.39,4,1,6,0.00
2013-11-13,50.8,36.4,21.6,34.8,24.7,13.3,73,63,49,30.39,29.84,12,4,16,0.00
2013-11-14,52.4,40.3,33.3,39.2,32.3,27.8,80,73,60,29.85,29.73,5,1,6,0.00
2013-11-15,56.9,42.3,29.9,41.1,34.3,25.8,89,74,51,29.82,29.63,8,2,11,0.00
2013-11-16,48.8,45.0,42.5,47.2,41.2,34.8,94,87,70,29.63,29.23,12,3,16,0.07
2013-11-17,44.6,39.9,32.2,42.2,35.2,24.4,93,84,74,29.78,29.29,17,3,22,0.00
2013-11-18,34.9,29.4,22.7,25.7,21.2,17.0,80,71,59,30.21,29.78,14,3,19,0.00
2013-11-19,44.3,34.6,22.1,31.1,25.3,16.9,83,70,56,30.22,29.89,19,6,26,0.00
2013-11-20,43.9,41.3,37.1,32.9,29.7,26.2,85,64,51,30.01,29.86,15,6,20,0.00
2013-11-21,38.0,31.7,24.7,35.3,27.1,15.8,91,83,69,30.45,30.00,9,1,12,0.00
2013-11-22,34.4,23.6,14.2,16.3,12.7,4.8,79,64,39,30.56,30.39,11,2,15,0.00
2013-11-23,18.4,11.5,7.6,5.6,3.0,0.5,79,69,50,30.76,30.56,7,1,10,0.00
2013-11-24,31.9,20.2,8.8,16.4,9.5,1.3,75,64,49,30.64,29.93,14,4,20,0.00
2013-11-25,38.5,33.2,27.5,28.6,23.7,16.6,78,68,61,30.03,29.85,13,4,18,0.00
2013-11-26,29.7,20.5,14.0,20.0,8.6,4.1,70,60,49,30.32,30.02,12,3,23,0.00
2013-11-27,24.3,17.9,8.5,12.0,8.5,2.9,81,67,57,30.32,30.02,9,2,12,0.00
2013-11-28,26.8,22.1,12.6,15.5,11.9,5.4,74,65,59,30.45,30.02,8,1,10,0.00
2013-11-29,32.0,23.0,10.4,22.0,14.8,4.4,84,71,59,30.45,30.09,12,3,16,0.00
2013-11-30,39.1,32.1,24.8,28.1,24.1,19.4,83,72,64,30.12,29.98,6,1,9,0.00